Time;durP1;ratioP1;P1;durP2;ratioP2;P2;SDS_P1;SDS_P2;PMS_P1;PMS_P2;Temp;Humidity;BMP_temperature;BMP_pressure;BME280_temperature;BME280_humidity;BME280_pressure;Samples;Min_cycle;Max_cycle;Signal;HPM_P1;HPM_P2
2023/03/19 00:00:47;;;;;;;120.55;46.15;;;;;;;;;;6257917;28;20045;-62
2023/03/19 00:04:08;;;;;;;115.13;44.85;;;;;;;;;;6258094;28;20037;-62
2023/03/19 00:07:09;;;;;;;102.45;38.00;;;;;;;;;;6260207;28;20130;-62
2023/03/19 00:10:09;;;;;;;110.03;43.22;;;;;;;;;;6258629;28;20542;-62
2023/03/19 00:13:10;;;;;;;81.63;32.72;;;;;;;;;;6261077;28;20037;-62
2023/03/19 00:16:11;;;;;;;83.55;31.80;;;;;;;;;;6259855;28;20056;-62
2023/03/19 00:19:11;;;;;;;65.72;26.58;;;;;;;;;;6260202;28;20053;-62
2023/03/19 00:22:12;;;;;;;77.35;31.65;;;;;;;;;;6257586;28;20048;-62
2023/03/19 00:25:13;;;;;;;82.13;29.38;;;;;;;;;;6262327;28;20052;-62
2023/03/19 00:28:14;;;;;;;88.93;34.90;;;;;;;;;;6260077;28;20052;-62
2023/03/19 00:31:16;;;;;;;91.22;34.45;;;;;;;;;;6259409;28;20053;-63
2023/03/19 00:34:19;;;;;;;95.07;39.70;;;;;;;;;;6261765;28;20041;-62
2023/03/19 00:37:20;;;;;;;99.70;37.75;;;;;;;;;;6258996;28;20045;-62
2023/03/19 00:40:21;;;;;;;102.15;39.78;;;;;;;;;;6262563;28;20075;-62
2023/03/19 00:43:22;;;;;;;106.85;40.88;;;;;;;;;;6259560;28;20110;-62
2023/03/19 00:46:24;;;;;;;104.68;40.08;;;;;;;;;;6261737;28;20099;-62
2023/03/19 00:49:25;;;;;;;112.47;42.17;;;;;;;;;;6254756;28;20039;-62
2023/03/19 00:52:25;;;;;;;119.47;41.42;;;;;;;;;;6260425;28;20412;-62
2023/03/19 00:55:26;;;;;;;108.70;42.65;;;;;;;;;;6256567;28;20044;-63
2023/03/19 00:58:26;;;;;;;107.38;41.15;;;;;;;;;;6255941;28;20743;-62
2023/03/19 01:01:28;;;;;;;108.40;41.15;;;;;;;;;;6256611;28;20075;-62
2023/03/19 01:04:28;;;;;;;119.18;43.55;;;;;;;;;;6258914;28;20045;-62
2023/03/19 01:07:29;;;;;;;124.95;45.40;;;;;;;;;;6260150;28;20492;-62
2023/03/19 01:10:32;;;;;;;147.98;51.67;;;;;;;;;;6265087;28;20103;-62
2023/03/19 01:13:33;;;;;;;112.80;44.80;;;;;;;;;;6262924;28;20373;-62
2023/03/19 01:16:33;;;;;;;111.50;40.67;;;;;;;;;;6263981;28;20159;-62
2023/03/19 01:19:34;;;;;;;106.03;40.80;;;;;;;;;;6266070;28;20049;-62
2023/03/19 01:22:36;;;;;;;89.03;35.58;;;;;;;;;;6265866;28;20052;-61
2023/03/19 01:25:37;;;;;;;;;;;;;;;;;;6266683;28;20068;-61
2023/03/19 01:28:38;;;;;;;86.63;34.50;;;;;;;;;;6263580;28;19975;-61
2023/03/19 01:31:39;;;;;;;91.35;35.03;;;;;;;;;;6261830;28;20504;-62
2023/03/19 01:34:39;;;;;;;68.85;30.20;;;;;;;;;;6262647;28;20057;-62
2023/03/19 01:37:40;;;;;;;84.40;34.35;;;;;;;;;;6262633;28;20049;-62
2023/03/19 01:40:46;;;;;;;82.00;31.67;;;;;;;;;;6265206;28;20080;-62
2023/03/19 01:43:47;;;;;;;86.80;33.45;;;;;;;;;;6263875;28;20047;-62
2023/03/19 01:46:48;;;;;;;73.72;32.55;;;;;;;;;;6264915;28;20044;-62
2023/03/19 01:49:53;;;;;;;81.30;31.85;;;;;;;;;;6263462;28;20079;-63
2023/03/19 01:52:53;;;;;;;72.20;29.60;;;;;;;;;;6262452;28;20061;-62
2023/03/19 01:56:01;;;;;;;81.53;31.75;;;;;;;;;;6264181;28;20045;-61
2023/03/19 01:59:16;;;;;;;85.10;31.27;;;;;;;;;;6263560;28;20053;-62
2023/03/19 02:02:28;;;;;;;76.50;30.23;;;;;;;;;;6263195;28;20081;-62
2023/03/19 02:05:29;;;;;;;68.97;27.90;;;;;;;;;;6262366;28;20136;-62
2023/03/19 02:08:31;;;;;;;70.63;29.65;;;;;;;;;;6260544;28;20045;-62
2023/03/19 02:11:32;;;;;;;69.05;28.65;;;;;;;;;;6263920;28;20492;-62
2023/03/19 02:14:33;;;;;;;74.57;29.23;;;;;;;;;;6242931;28;20060;-62
2023/03/19 02:17:34;;;;;;;71.47;29.02;;;;;;;;;;6262462;28;20052;-62
2023/03/19 02:20:43;;;;;;;81.20;32.95;;;;;;;;;;6266585;28;20098;-62
2023/03/19 02:24:02;;;;;;;71.45;29.92;;;;;;;;;;6264652;28;20059;-62
2023/03/19 02:27:05;;;;;;;78.68;31.75;;;;;;;;;;6268738;28;20057;-62
2023/03/19 02:30:23;;;;;;;80.50;31.00;;;;;;;;;;6259485;28;20060;-62
2023/03/19 02:33:25;;;;;;;72.20;30.40;;;;;;;;;;6261717;28;20559;-62
2023/03/19 02:36:45;;;;;;;83.32;33.85;;;;;;;;;;6260731;28;20144;-62
2023/03/19 02:40:17;;;;;;;74.50;31.30;;;;;;;;;;6261898;28;20396;-62
2023/03/19 02:43:20;;;;;;;79.55;32.65;;;;;;;;;;6253833;28;20056;-62
2023/03/19 02:46:21;;;;;;;82.38;33.03;;;;;;;;;;6260811;28;20537;-62
2023/03/19 02:49:22;;;;;;;80.13;32.75;;;;;;;;;;6258640;28;20065;-62
2023/03/19 02:52:23;;;;;;;62.78;27.95;;;;;;;;;;6261431;28;20041;-63
2023/03/19 02:55:23;;;;;;;70.82;30.20;;;;;;;;;;6261445;28;20060;-62
2023/03/19 02:58:24;;;;;;;70.40;30.23;;;;;;;;;;6258755;28;20312;-62
2023/03/19 03:01:25;;;;;;;78.93;31.45;;;;;;;;;;6261040;28;20425;-62
2023/03/19 03:04:25;;;;;;;80.97;33.90;;;;;;;;;;6261867;28;20064;-62
2023/03/19 03:07:26;;;;;;;77.90;30.65;;;;;;;;;;6259032;28;20408;-62
2023/03/19 03:10:27;;;;;;;78.82;32.55;;;;;;;;;;6259528;28;20048;-62
2023/03/19 03:13:28;;;;;;;76.72;32.05;;;;;;;;;;6260952;28;20079;-62
2023/03/19 03:16:29;;;;;;;80.85;31.08;;;;;;;;;;6264254;28;20143;-62
2023/03/19 03:19:29;;;;;;;79.20;32.15;;;;;;;;;;6259857;28;20053;-62
2023/03/19 03:22:31;;;;;;;73.95;30.13;;;;;;;;;;6262477;28;20119;-63
2023/03/19 03:25:31;;;;;;;79.82;32.72;;;;;;;;;;6258453;28;20053;-62
2023/03/19 03:28:32;;;;;;;79.00;33.42;;;;;;;;;;6258176;28;20067;-62
2023/03/19 03:31:33;;;;;;;82.53;31.85;;;;;;;;;;6260871;28;20055;-62
2023/03/19 03:34:34;;;;;;;72.30;31.17;;;;;;;;;;6260186;28;20053;-62
2023/03/19 03:37:35;;;;;;;74.55;32.30;;;;;;;;;;6258591;28;20048;-62
2023/03/19 03:40:36;;;;;;;75.97;33.23;;;;;;;;;;6259536;28;20412;-62
2023/03/19 03:43:36;;;;;;;73.13;32.15;;;;;;;;;;6260749;28;20300;-62
2023/03/19 03:46:37;;;;;;;81.82;34.20;;;;;;;;;;6260248;28;20096;-62
2023/03/19 03:49:37;;;;;;;73.82;31.73;;;;;;;;;;6264416;28;20045;-62
2023/03/19 03:52:39;;;;;;;73.65;32.58;;;;;;;;;;6263528;28;20052;-62
2023/03/19 03:55:40;;;;;;;78.77;31.77;;;;;;;;;;6260947;28;20052;-62
2023/03/19 03:58:41;;;;;;;71.20;32.20;;;;;;;;;;6265240;28;20318;-62
2023/03/19 04:01:41;;;;;;;78.25;33.95;;;;;;;;;;6263364;28;20043;-62
2023/03/19 04:04:42;;;;;;;87.10;34.72;;;;;;;;;;6260431;28;20051;-62
2023/03/19 04:07:43;;;;;;;88.43;36.35;;;;;;;;;;6259342;28;20106;-62
2023/03/19 04:10:44;;;;;;;79.10;33.08;;;;;;;;;;6261140;28;20064;-62
2023/03/19 04:13:44;;;;;;;84.10;33.40;;;;;;;;;;6260292;28;20041;-62
2023/03/19 04:16:45;;;;;;;77.32;32.88;;;;;;;;;;6258650;28;20055;-63
2023/03/19 04:19:46;;;;;;;76.90;32.80;;;;;;;;;;6257281;28;20041;-62
2023/03/19 04:22:47;;;;;;;73.95;32.25;;;;;;;;;;6259449;28;20081;-62
2023/03/19 04:25:47;;;;;;;69.60;31.63;;;;;;;;;;6260890;28;20492;-62
2023/03/19 04:28:48;;;;;;;72.07;30.73;;;;;;;;;;6259141;28;20041;-63
2023/03/19 04:31:49;;;;;;;67.18;31.17;;;;;;;;;;6258950;28;20061;-62
2023/03/19 04:34:51;;;;;;;65.05;30.58;;;;;;;;;;6260064;28;20055;-62
2023/03/19 04:37:51;;;;;;;72.38;30.92;;;;;;;;;;6260332;28;20091;-62
2023/03/19 04:40:53;;;;;;;67.47;31.05;;;;;;;;;;6266096;28;20480;-62
2023/03/19 04:43:54;;;;;;;62.95;29.83;;;;;;;;;;6264604;28;20048;-62
2023/03/19 04:46:55;;;;;;;61.08;29.45;;;;;;;;;;6263363;28;20059;-62
2023/03/19 04:49:56;;;;;;;65.32;28.67;;;;;;;;;;6264514;28;20611;-62
2023/03/19 04:52:56;;;;;;;61.50;28.13;;;;;;;;;;6263193;28;20056;-62
2023/03/19 04:55:57;;;;;;;60.92;28.92;;;;;;;;;;6263453;28;20476;-62
2023/03/19 04:58:58;;;;;;;59.92;29.02;;;;;;;;;;6268076;28;20503;-62
2023/03/19 05:01:58;;;;;;;64.22;29.33;;;;;;;;;;6266441;28;20103;-62
2023/03/19 05:04:59;;;;;;;64.63;28.45;;;;;;;;;;6263820;28;20137;-63
2023/03/19 05:07:59;;;;;;;58.72;28.48;;;;;;;;;;6260095;28;20126;-62
2023/03/19 05:11:00;;;;;;;58.35;29.90;;;;;;;;;;6267075;28;20052;-63
2023/03/19 05:14:01;;;;;;;70.45;30.17;;;;;;;;;;6256603;28;20049;-62
2023/03/19 05:17:02;;;;;;;63.90;30.88;;;;;;;;;;6261871;28;20049;-62
2023/03/19 05:20:03;;;;;;;69.13;30.60;;;;;;;;;;6265324;28;20041;-62
2023/03/19 05:23:05;;;;;;;74.00;32.47;;;;;;;;;;6266977;28;20392;-62
2023/03/19 05:26:06;;;;;;;74.07;35.55;;;;;;;;;;6267839;28;20549;-62
2023/03/19 05:29:09;;;;;;;75.78;33.42;;;;;;;;;;6267173;28;20101;-62
2023/03/19 05:32:10;;;;;;;67.95;31.27;;;;;;;;;;6263535;28;20122;-62
2023/03/19 05:35:12;;;;;;;74.07;32.95;;;;;;;;;;6267577;28;20055;-62
2023/03/19 05:38:14;;;;;;;68.82;32.38;;;;;;;;;;6264575;28;20250;-61
2023/03/19 05:41:15;;;;;;;65.65;30.85;;;;;;;;;;6263030;28;20045;-62
2023/03/19 05:44:15;;;;;;;67.22;29.48;;;;;;;;;;6263481;28;20041;-62
2023/03/19 05:47:16;;;;;;;63.30;28.90;;;;;;;;;;6260278;28;20048;-62
2023/03/19 05:50:18;;;;;;;59.90;28.33;;;;;;;;;;6264621;28;20065;-62
2023/03/19 05:53:19;;;;;;;63.72;27.23;;;;;;;;;;6268847;28;20045;-62
2023/03/19 05:56:20;;;;;;;65.82;29.08;;;;;;;;;;6263264;28;20060;-62
2023/03/19 05:59:21;;;;;;;67.80;30.83;;;;;;;;;;6266864;28;20420;-62
2023/03/19 06:02:21;;;;;;;67.20;30.08;;;;;;;;;;6264160;28;20052;-63
2023/03/19 06:05:22;;;;;;;59.80;28.83;;;;;;;;;;6267702;28;20503;-62
2023/03/19 06:08:22;;;;;;;63.30;29.42;;;;;;;;;;6262303;28;20580;-63
2023/03/19 06:11:23;;;;;;;59.42;27.95;;;;;;;;;;6264358;28;20512;-63
2023/03/19 06:14:24;;;;;;;69.80;29.48;;;;;;;;;;6265009;28;20044;-63
2023/03/19 06:17:25;;;;;;;63.17;28.20;;;;;;;;;;6261082;28;20040;-64
2023/03/19 06:20:26;;;;;;;65.50;29.83;;;;;;;;;;6259662;28;20157;-62
2023/03/19 06:23:28;;;;;;;64.70;29.13;;;;;;;;;;6261287;28;20048;-63
2023/03/19 06:26:28;;;;;;;94.05;35.42;;;;;;;;;;6259406;28;21410;-63
2023/03/19 06:29:29;;;;;;;88.43;33.83;;;;;;;;;;6260657;28;20139;-63
2023/03/19 06:32:30;;;;;;;100.07;38.67;;;;;;;;;;6260583;28;20455;-63
2023/03/19 06:35:31;;;;;;;115.72;39.60;;;;;;;;;;6260871;28;20420;-64
2023/03/19 06:38:32;;;;;;;118.80;43.83;;;;;;;;;;6264392;28;20102;-63
2023/03/19 06:41:32;;;;;;;121.30;43.72;;;;;;;;;;6263530;28;20052;-63
2023/03/19 06:44:33;;;;;;;107.70;39.25;;;;;;;;;;6261603;28;20069;-62
2023/03/19 06:47:34;;;;;;;84.03;33.17;;;;;;;;;;6259685;28;20143;-63
2023/03/19 06:50:34;;;;;;;100.47;35.78;;;;;;;;;;6262216;28;20073;-63
2023/03/19 06:53:35;;;;;;;79.38;31.27;;;;;;;;;;6269511;28;20095;-62
2023/03/19 06:56:36;;;;;;;78.80;30.23;;;;;;;;;;6261157;28;20459;-63
2023/03/19 06:59:37;;;;;;;84.22;31.02;;;;;;;;;;6261885;28;20044;-63
2023/03/19 07:02:37;;;;;;;105.18;35.75;;;;;;;;;;6258874;28;20045;-63
2023/03/19 07:05:38;;;;;;;113.28;37.58;;;;;;;;;;6259277;28;20377;-62
2023/03/19 07:08:44;;;;;;;153.73;46.97;;;;;;;;;;6258654;28;20060;-62
2023/03/19 07:11:45;;;;;;;72.50;28.27;;;;;;;;;;6256741;28;20067;-64
2023/03/19 07:14:46;;;;;;;81.35;32.50;;;;;;;;;;6260614;28;20036;-64
2023/03/19 07:17:48;;;;;;;40.70;17.60;;;;;;;;;;6264003;28;20140;-63
2023/03/19 07:20:48;;;;;;;38.53;17.60;;;;;;;;;;6265988;28;20381;-62
2023/03/19 07:23:49;;;;;;;36.97;18.77;;;;;;;;;;6261405;28;20056;-63
2023/03/19 07:26:50;;;;;;;39.42;18.15;;;;;;;;;;6259391;28;20412;-63
2023/03/19 07:29:51;;;;;;;46.80;20.52;;;;;;;;;;6265885;28;20049;-63
2023/03/19 07:32:52;;;;;;;48.53;21.90;;;;;;;;;;6261011;28;20044;-63
2023/03/19 07:35:53;;;;;;;35.55;18.55;;;;;;;;;;6259482;28;20064;-62
2023/03/19 07:38:53;;;;;;;40.25;19.98;;;;;;;;;;6260244;28;20045;-62
2023/03/19 07:41:54;;;;;;;38.78;18.90;;;;;;;;;;6259733;28;20191;-63
2023/03/19 07:44:55;;;;;;;32.33;15.77;;;;;;;;;;6261630;28;20059;-62
2023/03/19 07:47:55;;;;;;;35.42;15.68;;;;;;;;;;6263373;28;20057;-63
2023/03/19 07:50:56;;;;;;;32.65;16.10;;;;;;;;;;6260995;28;20045;-62
2023/03/19 07:53:57;;;;;;;31.25;15.65;;;;;;;;;;6264057;28;20049;-63
2023/03/19 07:56:57;;;;;;;25.63;12.95;;;;;;;;;;6263631;28;20052;-63
2023/03/19 07:59:58;;;;;;;27.92;13.68;;;;;;;;;;6261477;28;20051;-63
2023/03/19 08:02:59;;;;;;;29.58;13.77;;;;;;;;;;6260525;28;20052;-63
2023/03/19 08:06:00;;;;;;;28.33;12.77;;;;;;;;;;6260471;28;20060;-63
2023/03/19 08:09:00;;;;;;;25.25;11.85;;;;;;;;;;6258407;28;20515;-62
2023/03/19 08:12:01;;;;;;;21.95;10.88;;;;;;;;;;6261881;28;20139;-63
2023/03/19 08:15:02;;;;;;;23.88;11.32;;;;;;;;;;6263853;28;20121;-63
2023/03/19 08:18:05;;;;;;;15.93;8.25;;;;;;;;;;6270868;28;20041;-62
2023/03/19 08:21:05;;;;;;;16.83;8.15;;;;;;;;;;6266179;28;20048;-63
2023/03/19 08:24:06;;;;;;;24.67;11.95;;;;;;;;;;6263586;28;20049;-62
2023/03/19 08:27:07;;;;;;;20.35;10.02;;;;;;;;;;6264714;28;20041;-63
2023/03/19 08:30:09;;;;;;;18.88;8.73;;;;;;;;;;6264631;28;20064;-62
2023/03/19 08:33:10;;;;;;;17.48;8.00;;;;;;;;;;6265260;28;20044;-62
2023/03/19 08:36:12;;;;;;;12.98;7.07;;;;;;;;;;6262321;28;20056;-64
2023/03/19 08:39:13;;;;;;;15.52;7.78;;;;;;;;;;6264931;28;20057;-62
2023/03/19 08:42:14;;;;;;;15.23;7.67;;;;;;;;;;6264141;28;20053;-63
2023/03/19 08:45:15;;;;;;;14.77;7.38;;;;;;;;;;6261465;28;20610;-63
2023/03/19 08:48:16;;;;;;;16.00;8.23;;;;;;;;;;6265245;28;20174;-63
2023/03/19 08:51:17;;;;;;;16.98;7.97;;;;;;;;;;6263231;28;20430;-63
2023/03/19 08:54:17;;;;;;;11.85;7.00;;;;;;;;;;6263336;28;20049;-63
2023/03/19 08:57:18;;;;;;;19.25;8.43;;;;;;;;;;6263601;28;20348;-63
2023/03/19 09:00:19;;;;;;;23.70;10.43;;;;;;;;;;6264516;28;20544;-63
2023/03/19 09:03:20;;;;;;;19.88;8.85;;;;;;;;;;6262983;28;20041;-63
2023/03/19 09:06:21;;;;;;;16.23;8.60;;;;;;;;;;6261679;28;20702;-63
2023/03/19 09:09:23;;;;;;;17.45;8.60;;;;;;;;;;6263662;28;20110;-63
2023/03/19 09:12:24;;;;;;;;;;;;;;;;;;6263830;28;20052;-63
2023/03/19 09:15:26;;;;;;;18.27;9.30;;;;;;;;;;6263053;28;19936;-63
2023/03/19 09:18:27;;;;;;;21.42;9.32;;;;;;;;;;6263941;28;20068;-62
2023/03/19 09:21:27;;;;;;;19.88;10.27;;;;;;;;;;6263994;28;20047;-63
2023/03/19 09:24:28;;;;;;;20.88;10.10;;;;;;;;;;6262806;28;20045;-63
2023/03/19 09:27:29;;;;;;;22.75;11.85;;;;;;;;;;6263841;28;20415;-63
2023/03/19 09:30:30;;;;;;;22.20;11.40;;;;;;;;;;6267475;28;20496;-63
2023/03/19 09:33:31;;;;;;;27.90;13.40;;;;;;;;;;6267168;28;20117;-62
2023/03/19 09:36:32;;;;;;;21.85;12.52;;;;;;;;;;6260541;28;20049;-62
2023/03/19 09:39:33;;;;;;;26.27;13.15;;;;;;;;;;6263838;28;20273;-63
2023/03/19 09:42:54;;;;;;;24.05;13.13;;;;;;;;;;6261883;28;20049;-63
2023/03/19 09:45:57;;;;;;;26.73;13.70;;;;;;;;;;6261703;28;20195;-64
2023/03/19 09:49:11;;;;;;;22.73;12.38;;;;;;;;;;6264910;28;20055;-63
2023/03/19 09:52:53;;;;;;;25.10;12.35;;;;;;;;;;6261960;28;20929;-63
2023/03/19 09:55:57;;;;;;;22.80;13.07;;;;;;;;;;6249686;28;20049;-63
2023/03/19 09:58:58;;;;;;;25.67;13.32;;;;;;;;;;6260490;28;20045;-63
2023/03/19 10:02:25;;;;;;;22.25;11.65;;;;;;;;;;6262319;28;20064;-62
2023/03/19 10:06:04;;;;;;;24.77;11.25;;;;;;;;;;6261936;28;20139;-62
2023/03/19 10:09:56;;;;;;;25.35;14.35;;;;;;;;;;6261603;28;20049;-63
2023/03/19 10:12:59;;;;;;;26.23;12.43;;;;;;;;;;6193122;28;20046;-62
2023/03/19 10:16:00;;;;;;;26.65;13.50;;;;;;;;;;6254227;28;20106;-62
2023/03/19 10:19:05;;;;;;;25.63;13.10;;;;;;;;;;6252501;28;20083;-63
2023/03/19 10:22:14;;;;;;;30.42;13.88;;;;;;;;;;6250464;28;20053;-62
2023/03/19 10:25:20;;;;;;;25.40;12.98;;;;;;;;;;6250537;28;20049;-62
2023/03/19 10:28:21;;;;;;;30.90;13.95;;;;;;;;;;6250036;28;20124;-62
2023/03/19 10:32:00;;;;;;;24.92;13.55;;;;;;;;;;6252436;28;20068;-63
2023/03/19 10:35:09;;;;;;;32.90;14.70;;;;;;;;;;6249720;28;21501;-62
2023/03/19 10:38:21;;;;;;;35.58;15.45;;;;;;;;;;6250254;28;20155;-62
2023/03/19 10:41:44;;;;;;;20.85;10.45;;;;;;;;;;6250720;28;20091;-62
2023/03/19 10:44:49;;;;;;;;;;;;;;;;;;6250596;28;20056;-62
2023/03/19 10:47:51;;;;;;;15.48;8.77;;;;;;;;;;6247660;28;20573;-62
2023/03/19 10:51:04;;;;;;;16.17;9.02;;;;;;;;;;6251216;28;20098;-62
2023/03/19 10:54:26;;;;;;;16.85;8.65;;;;;;;;;;6250832;28;20132;-62
2023/03/19 10:57:28;;;;;;;24.17;11.48;;;;;;;;;;6247780;28;20041;-62
2023/03/19 11:00:32;;;;;;;25.05;12.15;;;;;;;;;;6252627;28;20132;-61
2023/03/19 11:03:57;;;;;;;22.25;10.27;;;;;;;;;;6249503;28;20045;-62
2023/03/19 11:07:08;;;;;;;18.73;9.40;;;;;;;;;;6235995;28;20053;-62
2023/03/19 11:10:15;;;;;;;17.95;9.40;;;;;;;;;;6250604;28;20518;-62
2023/03/19 11:13:25;;;;;;;18.45;9.85;;;;;;;;;;6251257;28;20053;-62
2023/03/19 11:16:27;;;;;;;18.48;9.32;;;;;;;;;;6247557;28;20053;-60
2023/03/19 11:19:30;;;;;;;16.42;8.40;;;;;;;;;;6251349;28;20052;-60
2023/03/19 11:22:34;;;;;;;15.13;8.02;;;;;;;;;;6248932;28;20159;-61
2023/03/19 11:25:37;;;;;;;16.33;8.32;;;;;;;;;;6247101;28;20767;-61
2023/03/19 11:28:41;;;;;;;16.00;7.80;;;;;;;;;;6250410;28;20110;-60
2023/03/19 11:32:04;;;;;;;19.95;9.00;;;;;;;;;;6250341;28;20048;-61
2023/03/19 11:35:16;;;;;;;17.00;8.50;;;;;;;;;;6247653;28;20060;-61
2023/03/19 11:38:28;;;;;;;14.07;7.47;;;;;;;;;;6246773;28;20082;-64
2023/03/19 11:41:48;;;;;;;19.13;8.77;;;;;;;;;;6249208;28;20063;-60
2023/03/19 11:45:11;;;;;;;19.65;8.98;;;;;;;;;;6249780;28;20060;-62
2023/03/19 11:48:21;;;;;;;21.30;9.13;;;;;;;;;;6249350;28;20970;-62
2023/03/19 11:51:31;;;;;;;21.90;10.32;;;;;;;;;;6249276;28;20045;-62
2023/03/19 11:55:04;;;;;;;16.67;8.60;;;;;;;;;;6249511;28;20079;-62
2023/03/19 11:58:28;;;;;;;19.38;8.52;;;;;;;;;;6250256;28;20529;-60
2023/03/19 12:01:50;;;;;;;17.52;9.20;;;;;;;;;;6250577;28;20484;-62
2023/03/19 12:04:57;;;;;;;17.70;8.55;;;;;;;;;;6250090;28;20060;-62
2023/03/19 12:08:12;;;;;;;19.73;8.95;;;;;;;;;;6245861;28;20045;-62
2023/03/19 12:11:29;;;;;;;16.83;8.77;;;;;;;;;;6248405;28;20049;-62
2023/03/19 12:14:41;;;;;;;19.80;8.88;;;;;;;;;;6249108;28;20053;-60
2023/03/19 12:17:51;;;;;;;18.13;9.15;;;;;;;;;;6247818;28;20045;-63
2023/03/19 12:21:35;;;;;;;26.90;11.65;;;;;;;;;;6248375;28;20147;-62
2023/03/19 12:24:59;;;;;;;32.60;13.07;;;;;;;;;;6248549;28;20140;-61
2023/03/19 12:28:18;;;;;;;81.18;43.22;;;;;;;;;;6239855;28;20716;-61
2023/03/19 12:31:29;;;;;;;20.02;10.07;;;;;;;;;;6250466;28;20045;-61
2023/03/19 12:34:35;;;;;;;23.70;12.13;;;;;;;;;;6247543;28;20396;-62
2023/03/19 12:37:42;;;;;;;22.42;11.00;;;;;;;;;;6246214;28;20187;-62
2023/03/19 12:40:48;;;;;;;20.92;10.13;;;;;;;;;;6249659;28;20480;-61
2023/03/19 12:43:58;;;;;;;19.80;9.73;;;;;;;;;;6247606;28;20057;-62
2023/03/19 12:47:03;;;;;;;17.98;8.85;;;;;;;;;;6245406;28;20488;-61
2023/03/19 12:50:12;;;;;;;21.20;9.63;;;;;;;;;;6247745;28;20055;-61
2023/03/19 12:53:26;;;;;;;18.77;9.65;;;;;;;;;;6249412;28;20516;-61
2023/03/19 12:56:30;;;;;;;22.25;10.90;;;;;;;;;;6246762;28;20366;-62
2023/03/19 12:59:52;;;;;;;24.85;10.60;;;;;;;;;;6251867;28;20420;-62
2023/03/19 13:03:02;;;;;;;21.85;10.05;;;;;;;;;;6253341;28;20051;-61
2023/03/19 13:06:07;;;;;;;19.52;10.30;;;;;;;;;;6252843;28;20500;-61
2023/03/19 13:09:28;;;;;;;18.33;10.23;;;;;;;;;;6251136;28;20049;-61
2023/03/19 13:12:33;;;;;;;21.88;11.55;;;;;;;;;;6252541;28;21145;-62
2023/03/19 13:15:40;;;;;;;22.35;10.70;;;;;;;;;;6253401;28;20057;-61
2023/03/19 13:19:03;;;;;;;24.80;11.55;;;;;;;;;;6252647;28;20089;-62
2023/03/19 13:22:09;;;;;;;22.88;10.68;;;;;;;;;;6250729;28;20059;-62
2023/03/19 13:25:15;;;;;;;20.83;11.15;;;;;;;;;;6250660;28;20036;-61
2023/03/19 13:28:30;;;;;;;21.20;10.93;;;;;;;;;;6251555;28;20075;-61
2023/03/19 13:31:35;;;;;;;22.30;10.77;;;;;;;;;;6251864;28;20064;-62
2023/03/19 13:34:37;;;;;;;28.70;11.77;;;;;;;;;;6250828;28;20485;-62
2023/03/19 13:37:42;;;;;;;18.50;10.02;;;;;;;;;;6252565;28;20053;-62
2023/03/19 13:40:50;;;;;;;80.88;26.15;;;;;;;;;;6253612;28;20155;-61
2023/03/19 13:43:52;;;;;;;25.63;13.23;;;;;;;;;;6248878;28;20060;-62
2023/03/19 13:46:52;;;;;;;;;;;;;;;;;;6249639;28;20095;-62
2023/03/19 13:50:07;;;;;;;43.97;22.58;;;;;;;;;;6251492;28;21155;-62
2023/03/19 13:53:39;;;;;;;20.30;10.77;;;;;;;;;;6251263;28;20091;-61
2023/03/19 13:56:54;;;;;;;25.17;10.38;;;;;;;;;;6247299;28;20163;-62
2023/03/19 13:59:56;;;;;;;22.77;11.63;;;;;;;;;;6251785;28;20077;-61
2023/03/19 14:02:57;;;;;;;21.95;11.88;;;;;;;;;;6252797;28;20482;-61
2023/03/19 14:05:59;;;;;;;22.38;10.90;;;;;;;;;;6250702;28;21192;-61
2023/03/19 14:09:00;;;;;;;24.65;12.10;;;;;;;;;;6250768;28;20053;-62
2023/03/19 14:12:30;;;;;;;27.65;12.73;;;;;;;;;;6252364;28;20049;-61
2023/03/19 14:15:32;;;;;;;25.67;11.02;;;;;;;;;;6249319;28;20571;-61
2023/03/19 14:18:38;;;;;;;22.55;10.57;;;;;;;;;;6251889;28;20055;-62
2023/03/19 14:21:41;;;;;;;24.73;11.10;;;;;;;;;;6251010;28;20711;-61
2023/03/19 14:25:00;;;;;;;25.88;12.38;;;;;;;;;;6252610;28;20632;-61
2023/03/19 14:28:08;;;;;;;30.25;12.55;;;;;;;;;;6251436;28;20063;-61
2023/03/19 14:31:20;;;;;;;24.52;10.75;;;;;;;;;;6248597;28;20076;-61
2023/03/19 14:34:27;;;;;;;29.25;11.18;;;;;;;;;;6252060;28;20520;-61
2023/03/19 14:37:43;;;;;;;27.77;12.20;;;;;;;;;;6249231;28;20049;-61
2023/03/19 14:40:49;;;;;;;24.35;11.02;;;;;;;;;;6250022;28;20049;-61
2023/03/19 14:44:05;;;;;;;24.88;11.05;;;;;;;;;;6248426;28;20044;-62
2023/03/19 14:47:24;;;;;;;27.50;11.85;;;;;;;;;;6248450;28;20073;-61
2023/03/19 14:50:25;;;;;;;27.50;12.35;;;;;;;;;;6251917;28;20609;-61
2023/03/19 14:53:47;;;;;;;33.45;13.07;;;;;;;;;;6251118;28;20049;-61
2023/03/19 14:56:49;;;;;;;30.00;13.23;;;;;;;;;;6247720;28;20049;-62
2023/03/19 14:59:49;;;;;;;33.58;17.30;;;;;;;;;;6251161;28;20240;-62
2023/03/19 15:02:51;;;;;;;29.52;13.35;;;;;;;;;;6253735;28;20110;-61
2023/03/19 15:05:58;;;;;;;26.67;12.70;;;;;;;;;;6247668;28;20163;-61
2023/03/19 15:09:01;;;;;;;34.35;13.90;;;;;;;;;;6248613;28;20298;-61
2023/03/19 15:12:13;;;;;;;30.30;14.20;;;;;;;;;;6249328;28;20117;-61
2023/03/19 15:15:23;;;;;;;41.22;15.18;;;;;;;;;;6248562;28;20056;-61
2023/03/19 15:18:25;;;;;;;32.08;14.18;;;;;;;;;;6249027;28;20053;-61
2023/03/19 15:21:29;;;;;;;31.25;13.93;;;;;;;;;;6248583;28;20044;-61
2023/03/19 15:24:29;;;;;;;33.70;14.38;;;;;;;;;;6248782;28;20726;-61
2023/03/19 15:27:31;;;;;;;33.85;14.18;;;;;;;;;;6245673;28;20144;-61
2023/03/19 15:30:31;;;;;;;35.67;14.68;;;;;;;;;;6249844;28;20697;-61
2023/03/19 15:33:38;;;;;;;30.75;13.48;;;;;;;;;;6249266;28;20094;-61
2023/03/19 15:36:38;;;;;;;27.45;12.90;;;;;;;;;;6244603;28;20539;-61
2023/03/19 15:39:46;;;;;;;31.85;14.02;;;;;;;;;;6248817;28;20136;-61
2023/03/19 15:42:48;;;;;;;34.65;13.85;;;;;;;;;;6249093;28;20056;-61
2023/03/19 15:45:51;;;;;;;28.42;13.02;;;;;;;;;;6248588;28;20141;-61
2023/03/19 15:49:01;;;;;;;28.13;13.02;;;;;;;;;;6248207;28;20504;-61
2023/03/19 15:52:07;;;;;;;28.65;13.05;;;;;;;;;;6248256;28;20053;-61
2023/03/19 15:55:08;;;;;;;29.27;13.13;;;;;;;;;;6248754;28;20408;-61
2023/03/19 15:58:18;;;;;;;35.05;13.07;;;;;;;;;;6246674;28;20477;-61
2023/03/19 16:01:20;;;;;;;30.67;14.27;;;;;;;;;;6250825;28;20110;-61
2023/03/19 16:04:24;;;;;;;29.02;12.95;;;;;;;;;;6250772;28;20045;-61
2023/03/19 16:07:38;;;;;;;28.27;12.20;;;;;;;;;;6246782;28;20060;-60
2023/03/19 16:10:41;;;;;;;30.55;12.00;;;;;;;;;;6247339;28;20635;-61
2023/03/19 16:13:53;;;;;;;27.63;13.45;;;;;;;;;;6249900;28;20436;-61
2023/03/19 16:17:08;;;;;;;27.95;13.05;;;;;;;;;;6245908;28;20059;-61
2023/03/19 16:20:12;;;;;;;30.05;13.23;;;;;;;;;;6249698;28;20045;-61
2023/03/19 16:23:15;;;;;;;29.13;13.07;;;;;;;;;;6248286;28;20044;-61
2023/03/19 16:26:22;;;;;;;30.20;14.13;;;;;;;;;;6247131;28;20033;-61
2023/03/19 16:29:26;;;;;;;30.00;13.52;;;;;;;;;;6249209;28;20053;-61
2023/03/19 16:32:29;;;;;;;32.60;13.38;;;;;;;;;;6248830;28;20103;-61
2023/03/19 16:35:35;;;;;;;32.15;12.90;;;;;;;;;;6253097;28;20053;-61
2023/03/19 16:38:43;;;;;;;32.15;14.02;;;;;;;;;;6255718;28;20063;-61
2023/03/19 16:42:12;;;;;;;34.22;14.05;;;;;;;;;;6254175;28;20087;-61
2023/03/19 16:45:13;;;;;;;39.72;17.77;;;;;;;;;;6250588;28;20041;-61
2023/03/19 16:48:13;;;;;;;48.25;20.08;;;;;;;;;;6253842;28;20431;-61
2023/03/19 16:51:16;;;;;;;70.22;26.25;;;;;;;;;;6253646;28;20306;-61
2023/03/19 16:54:17;;;;;;;67.72;23.73;;;;;;;;;;6252107;28;20045;-61
2023/03/19 16:57:18;;;;;;;62.40;25.27;;;;;;;;;;6250502;28;20056;-61
2023/03/19 17:00:20;;;;;;;66.90;24.57;;;;;;;;;;6252129;28;20056;-61
2023/03/19 17:03:20;;;;;;;64.87;27.20;;;;;;;;;;6251755;28;20044;-61
2023/03/19 17:06:21;;;;;;;62.85;25.25;;;;;;;;;;6251047;28;20826;-61
2023/03/19 17:09:22;;;;;;;63.95;25.30;;;;;;;;;;6250092;28;20106;-61
2023/03/19 17:12:22;;;;;;;68.07;26.40;;;;;;;;;;6253075;28;20052;-61
2023/03/19 17:15:25;;;;;;;67.05;25.27;;;;;;;;;;6246690;28;20048;-60
2023/03/19 17:18:46;;;;;;;65.50;25.15;;;;;;;;;;6251355;28;20061;-61
2023/03/19 17:21:50;;;;;;;74.25;27.60;;;;;;;;;;6252791;28;20486;-60
2023/03/19 17:24:50;;;;;;;72.97;27.48;;;;;;;;;;6252708;28;20048;-61
2023/03/19 17:27:51;;;;;;;92.28;31.70;;;;;;;;;;6252249;28;20102;-60
2023/03/19 17:30:52;;;;;;;95.47;29.77;;;;;;;;;;6251998;28;20376;-60
2023/03/19 17:33:59;;;;;;;106.70;35.28;;;;;;;;;;6251049;28;20045;-61
2023/03/19 17:37:02;;;;;;;94.10;30.75;;;;;;;;;;6247503;28;20072;-61
2023/03/19 17:40:15;;;;;;;93.78;32.15;;;;;;;;;;6253448;28;20049;-61
2023/03/19 17:43:16;;;;;;;92.45;31.15;;;;;;;;;;6252893;28;20064;-60
2023/03/19 17:46:22;;;;;;;102.10;31.42;;;;;;;;;;6247587;28;20059;-60
2023/03/19 17:49:27;;;;;;;102.38;33.55;;;;;;;;;;6250423;28;20130;-60
2023/03/19 17:52:29;;;;;;;112.57;36.80;;;;;;;;;;6254396;28;20416;-61
2023/03/19 17:55:29;;;;;;;107.05;35.30;;;;;;;;;;6253566;28;20100;-61
2023/03/19 17:58:30;;;;;;;98.95;32.55;;;;;;;;;;6254056;28;20056;-59